KHUL 152242Z AUTO 16011G17KT 2 1/2SM RA BR BKN010 BKN015 OVC030 10/09 A2973 RMK AO2 PRESFR P0004 T01000094 $